Sliedrecht, Netherlands
Current Conditions -  °F | °C
As of 11:25 AM on Saturday 20 Dec 2014 (Local Time) from EHRD Reporting Station
Overcast Overcast  
Wind Chill: 41°   Ceiling: 2800
Heat Index: 48°   Visibility: 6mi
Dew Point: 39°   Wind: 22mph
Humidity: 71%   Direction: 270°W
Pressure: 30.09"   Gusts: 36mph
Location:  51.82°N, 4.78°E
Report Text: EHRD 201025Z AUTO 27019G31KT 240V310 9999 SCT024 BKN028 OVC03409/04 Q1019 NOSIG
Loading
Personal Weather Stations






























Interactive Weather Map New forecast layout! Learn more

10-Day Weather Forecast

Advertisements
Track Severe Weather on mobile